Beesleys Point, New Jersey
Current Conditions -  °F | °C
As of 4:36 PM on Saturday 20 Dec 2014 (Local Time) from KACY Reporting Station
Overcast Overcast  
Wind Chill: 33°   Ceiling: 3000
Heat Index: 33°   Visibility: 10mi
Dew Point: 21°   Wind: 3mph
Humidity: 61%   Direction: 300°WNW
Pressure: 30.27"   Gusts: NA
Location:  39.2675°N, 74.6627°W
Report Text: KACY 202136Z 30003KT 10SM OVC030 01/M06 A3027 RMK AO2 T00061061
Loading
Personal Weather Stations






























Interactive Weather Map New forecast layout! Learn more

10-Day Weather Forecast

Advertisements
Track Severe Weather on mobile